createdAt,value
2018-02-09T00:01:36.605Z,38.70
2018-02-09T00:04:04.180Z,34.60
2018-02-09T00:06:31.907Z,34.50
2018-02-09T00:08:59.422Z,33.25
2018-02-09T00:11:27.056Z,36.15
2018-02-09T00:13:54.592Z,35.60
2018-02-09T00:16:22.585Z,34.55
2018-02-09T00:18:50.235Z,34.03
2018-02-09T00:21:18.165Z,35.20
2018-02-09T00:23:45.971Z,36.97
2018-02-09T00:26:14.092Z,38.05
2018-02-09T00:28:41.794Z,35.70
2018-02-09T00:31:09.788Z,34.65
2018-02-09T00:33:37.571Z,34.03
2018-02-09T00:36:05.132Z,36.00
2018-02-09T00:38:32.749Z,35.40
2018-02-09T00:41:01.263Z,36.58
2018-02-09T00:43:28.891Z,37.38
2018-02-09T00:45:57.109Z,39.45
2018-02-09T00:48:24.664Z,35.28
2018-02-09T00:50:52.291Z,39.15
2018-02-09T00:53:19.987Z,34.92
2018-02-09T00:55:47.641Z,36.25
2018-02-09T00:58:15.285Z,36.53
2018-02-09T01:00:42.972Z,33.78
2018-02-09T01:03:10.657Z,37.53
2018-02-09T01:05:38.250Z,37.80
2018-02-09T01:08:07.149Z,39.05
2018-02-09T01:10:34.811Z,36.08
2018-02-09T01:13:02.450Z,33.03
2018-02-09T01:15:30.153Z,36.10
2018-02-09T01:17:57.773Z,38.35
2018-02-09T01:20:25.381Z,36.42
2018-02-09T01:22:55.354Z,39.67
2018-02-09T01:25:23.298Z,37.22
2018-02-09T01:27:50.879Z,37.40
2018-02-09T01:30:19.376Z,39.70
2018-02-09T01:33:01.122Z,38.28
2018-02-09T01:35:31.850Z,38.47
2018-02-09T01:38:06.036Z,40.20
2018-02-09T01:40:37.056Z,39.20
2018-02-09T01:43:04.923Z,40.40
2018-02-09T01:45:42.957Z,41.53
2018-02-09T01:48:10.515Z,37.22
2018-02-09T01:50:38.311Z,39.85
2018-02-09T01:53:05.878Z,38.30
2018-02-09T01:55:33.930Z,38.15
2018-02-09T01:58:01.500Z,44.30
2018-02-09T02:00:29.566Z,38.13
2018-02-09T02:02:57.190Z,36.67
2018-02-09T02:05:24.721Z,39.25
2018-02-09T02:07:52.369Z,40.35
2018-02-09T02:10:20.439Z,42.30
2018-02-09T02:12:48.139Z,40.47
2018-02-09T02:15:15.741Z,40.63
2018-02-09T02:17:43.276Z,41.10
2018-02-09T02:20:11.169Z,42.58
2018-02-09T02:22:39.170Z,40.97
2018-02-09T02:25:06.835Z,40.88
2018-02-09T02:27:34.558Z,38.25
2018-02-09T02:30:02.537Z,36.90
2018-02-09T02:32:30.211Z,36.92
2018-02-09T02:34:57.850Z,40.33
2018-02-09T02:37:25.915Z,39.53
2018-02-09T02:39:55.239Z,40.63
2018-02-09T02:42:23.183Z,41.90
2018-02-09T02:44:51.202Z,40.70
2018-02-09T02:47:18.854Z,42.62
2018-02-09T02:49:49.162Z,42.28
2018-02-09T02:52:16.855Z,42.15
2018-02-09T02:54:44.491Z,42.17
2018-02-09T02:57:12.174Z,44.30
2018-02-09T02:59:39.820Z,38.72
2018-02-09T03:02:07.469Z,40.85
2018-02-09T03:04:35.120Z,39.92
2018-02-09T03:07:02.848Z,42.17
2018-02-09T03:09:30.494Z,38.67
2018-02-09T03:11:58.550Z,40.97
2018-02-09T03:14:26.175Z,43.28
2018-02-09T03:16:53.845Z,42.30
2018-02-09T03:19:21.537Z,40.03
2018-02-09T03:21:49.359Z,39.28
2018-02-09T03:24:16.894Z,39.70
2018-02-09T03:26:44.514Z,41.53
2018-02-09T03:29:12.141Z,39.92
2018-02-09T03:31:39.806Z,43.95
2018-02-09T03:34:07.507Z,40.63
2018-02-09T03:36:35.822Z,42.88
2018-02-09T03:39:03.858Z,36.75
2018-02-09T03:41:31.477Z,39.30
2018-02-09T03:43:59.103Z,40.00
2018-02-09T03:46:26.960Z,42.28
2018-02-09T03:48:54.506Z,41.42
2018-02-09T03:51:22.109Z,41.85
2018-02-09T03:53:49.823Z,41.03
2018-02-09T03:56:17.442Z,43.08
2018-02-09T03:58:45.066Z,41.80
2018-02-09T04:01:12.822Z,44.03
2018-02-09T04:03:40.890Z,42.92
2018-02-09T04:06:13.407Z,42.88
2018-02-09T04:08:41.036Z,37.83
2018-02-09T04:11:08.861Z,41.65
2018-02-09T04:13:37.201Z,39.28
2018-02-09T04:16:04.880Z,41.03
2018-02-09T04:18:32.548Z,42.05
2018-02-09T04:21:07.110Z,42.00
2018-02-09T04:23:34.679Z,42.88
2018-02-09T04:26:02.647Z,39.75
2018-02-09T04:28:30.591Z,38.47
2018-02-09T04:30:58.214Z,41.85
2018-02-09T04:33:25.837Z,40.88
2018-02-09T04:35:53.385Z,38.70
2018-02-09T04:38:21.130Z,42.72
2018-02-09T04:40:48.656Z,39.33
2018-02-09T04:43:16.342Z,39.75
2018-02-09T04:45:43.930Z,41.78
2018-02-09T04:48:11.915Z,37.30
2018-02-09T04:50:39.864Z,44.28
2018-02-09T04:53:08.683Z,36.50
2018-02-09T04:55:44.466Z,42.53
2018-02-09T04:58:12.358Z,44.38
2018-02-09T05:00:49.112Z,38.63
2018-02-09T05:03:16.863Z,42.10
2018-02-09T05:05:44.877Z,38.58
2018-02-09T05:08:12.660Z,41.15
2018-02-09T05:10:40.209Z,42.10
2018-02-09T05:13:08.039Z,39.30
2018-02-09T05:15:35.582Z,42.28
2018-02-09T05:18:03.270Z,40.90
2018-02-09T05:20:31.270Z,42.70
2018-02-09T05:22:58.974Z,44.08
2018-02-09T05:25:26.746Z,38.58
2018-02-09T05:27:54.269Z,37.67
2018-02-09T05:30:22.098Z,38.47
2018-02-09T05:32:49.675Z,40.35
2018-02-09T05:35:17.846Z,43.25
2018-02-09T05:37:45.765Z,40.88
2018-02-09T05:40:13.575Z,40.20
2018-02-09T05:42:41.150Z,37.60
2018-02-09T05:45:08.721Z,45.40
2018-02-09T05:47:36.509Z,39.38
2018-02-09T05:50:04.125Z,40.42
2018-02-09T05:52:42.995Z,39.42
2018-02-09T05:55:10.682Z,43.17
2018-02-09T05:57:38.241Z,44.25
2018-02-09T06:00:07.395Z,40.65
2018-02-09T06:02:35.034Z,41.40
2018-02-09T06:05:02.651Z,42.60
2018-02-09T06:07:30.189Z,37.20
2018-02-09T06:09:58.041Z,43.15
2018-02-09T06:12:25.646Z,41.17
2018-02-09T06:14:53.162Z,41.85
2018-02-09T06:17:20.806Z,42.22
2018-02-09T06:19:49.243Z,41.05
2018-02-09T06:22:19.686Z,41.03
2018-02-09T06:24:47.238Z,39.20
2018-02-09T06:27:15.234Z,37.55
2018-02-09T06:29:42.882Z,44.20
2018-02-09T06:32:10.501Z,40.90
2018-02-09T06:34:38.065Z,39.72
2018-02-09T06:37:05.964Z,42.45
2018-02-09T06:39:33.636Z,40.95
2018-02-09T06:42:01.295Z,38.35
2018-02-09T06:44:31.408Z,40.88
2018-02-09T06:46:59.058Z,46.60
2018-02-09T06:49:26.744Z,43.22
2018-02-09T06:51:54.383Z,41.50
2018-02-09T06:54:22.112Z,39.47
2018-02-09T06:56:49.700Z,44.65
2018-02-09T06:59:17.394Z,41.72
2018-02-09T07:01:45.052Z,41.50
2018-02-09T07:04:12.719Z,42.92
2018-02-09T07:06:40.345Z,39.65
2018-02-09T07:09:13.331Z,41.20
2018-02-09T07:11:41.562Z,42.75
2018-02-09T07:14:09.316Z,39.67
2018-02-09T07:16:36.997Z,37.95
2018-02-09T07:19:04.667Z,39.90
2018-02-09T07:21:32.336Z,40.88
2018-02-09T07:24:00.322Z,41.55
2018-02-09T07:26:28.004Z,46.37
2018-02-09T07:28:55.652Z,41.08
2018-02-09T07:31:23.289Z,42.60
2018-02-09T07:33:51.468Z,42.30
2018-02-09T07:36:19.088Z,42.42
2018-02-09T07:38:46.676Z,46.03
2018-02-09T07:41:14.412Z,40.55
2018-02-09T07:43:42.251Z,43.95
2018-02-09T07:46:09.902Z,43.17
2018-02-09T07:48:37.622Z,44.88
2018-02-09T07:51:05.587Z,42.22
2018-02-09T07:53:33.382Z,40.35
2018-02-09T07:56:00.957Z,39.22
2018-02-09T07:58:28.593Z,43.47
2018-02-09T08:00:56.264Z,40.95
2018-02-09T08:03:23.952Z,42.08
2018-02-09T08:05:51.598Z,44.97
2018-02-09T08:08:19.270Z,40.33
2018-02-09T08:10:47.242Z,39.83
2018-02-09T08:13:14.979Z,38.13
2018-02-09T08:15:43.270Z,42.60
2018-02-09T08:18:31.431Z,39.05
2018-02-09T08:21:24.722Z,42.80
2018-02-09T08:23:53.510Z,45.70
2018-02-09T08:26:21.352Z,42.70
2018-02-09T08:28:48.931Z,41.90
2018-02-09T08:31:16.951Z,39.10
2018-02-09T08:33:44.564Z,42.25
2018-02-09T08:36:12.188Z,38.00
2018-02-09T08:38:39.739Z,41.30
2018-02-09T08:41:07.401Z,42.00
2018-02-09T08:43:35.068Z,44.97
2018-02-09T08:46:02.722Z,38.20
2018-02-09T08:48:30.512Z,40.12
2018-02-09T08:50:58.099Z,39.22
2018-02-09T08:53:26.073Z,42.55
2018-02-09T08:55:53.759Z,37.50
2018-02-09T08:58:21.409Z,39.97
2018-02-09T09:00:49.080Z,39.72
2018-02-09T09:03:16.779Z,36.92
2018-02-09T09:05:44.392Z,38.95
2018-02-09T09:08:12.036Z,38.15
2018-02-09T09:10:39.875Z,37.60
2018-02-09T09:13:07.432Z,38.63
2018-02-09T09:15:35.040Z,39.13
2018-02-09T09:18:02.662Z,36.88
2018-02-09T09:20:30.289Z,35.10
2018-02-09T09:23:01.466Z,37.03
2018-02-09T09:25:28.996Z,40.20
2018-02-09T09:27:56.988Z,40.70
2018-02-09T09:30:26.126Z,38.08
2018-02-09T09:32:53.817Z,38.00
2018-02-09T09:35:21.526Z,40.20
2018-02-09T09:37:49.480Z,36.10
2018-02-09T09:40:17.141Z,39.22
2018-02-09T09:42:44.875Z,38.92
2018-02-09T09:45:12.909Z,42.85
2018-02-09T09:47:40.594Z,38.40
2018-02-09T09:50:13.526Z,37.05
2018-02-09T09:52:41.080Z,41.35
2018-02-09T09:55:09.066Z,39.22
2018-02-09T09:57:36.691Z,42.45
2018-02-09T10:00:04.270Z,40.12
2018-02-09T10:02:40.098Z,36.78
2018-02-09T10:05:07.715Z,38.38
2018-02-09T10:07:35.346Z,41.33
2018-02-09T10:10:02.951Z,38.08
2018-02-09T10:12:30.519Z,41.40
2018-02-09T10:14:58.154Z,35.38
2018-02-09T10:17:25.787Z,38.15
2018-02-09T10:19:53.502Z,36.25
2018-02-09T10:22:25.412Z,36.13
2018-02-09T10:24:53.131Z,37.85
2018-02-09T10:27:20.765Z,35.00
2018-02-09T10:29:48.550Z,33.88
2018-02-09T10:32:16.132Z,36.35
2018-02-09T10:34:43.711Z,31.17
2018-02-09T10:37:11.442Z,31.50
2018-02-09T10:39:39.049Z,28.40
2018-02-09T10:42:06.704Z,29.10
2018-02-09T10:44:34.475Z,30.67
2018-02-09T10:47:02.043Z,30.50
2018-02-09T10:49:29.693Z,30.67
2018-02-09T10:52:01.478Z,29.10
2018-02-09T10:54:29.096Z,28.57
2018-02-09T10:56:56.868Z,30.60
2018-02-09T10:59:24.441Z,27.50
2018-02-09T11:01:52.050Z,27.80
2018-02-09T11:04:19.564Z,25.60
2018-02-09T11:06:47.275Z,26.20
2018-02-09T11:09:14.841Z,25.40
2018-02-09T11:11:42.646Z,27.50
2018-02-09T11:14:10.199Z,25.97
2018-02-09T11:16:37.860Z,24.07
2018-02-09T11:19:05.486Z,25.70
2018-02-09T11:21:33.415Z,23.57
2018-02-09T11:24:01.078Z,25.03
2018-02-09T11:26:29.124Z,24.10
2018-02-09T11:29:04.890Z,24.47
2018-02-09T11:31:32.703Z,23.07
2018-02-09T11:34:12.487Z,27.10
2018-02-09T11:36:41.294Z,23.27
2018-02-09T11:39:08.878Z,22.90
2018-02-09T11:41:36.926Z,23.63
2018-02-09T11:44:04.526Z,22.60
2018-02-09T11:46:32.474Z,27.50
2018-02-09T11:49:00.199Z,23.40
2018-02-09T11:51:27.843Z,22.07
2018-02-09T11:53:55.545Z,23.93
2018-02-09T11:56:23.175Z,21.23
2018-02-09T11:58:50.874Z,19.80
2018-02-09T12:01:18.499Z,22.23
2018-02-09T12:03:49.642Z,23.80
2018-02-09T12:06:17.347Z,22.67
2018-02-09T12:08:44.940Z,20.17
2018-02-09T12:11:12.635Z,23.07
2018-02-09T12:13:40.312Z,20.07
2018-02-09T12:16:08.010Z,22.23
2018-02-09T12:18:35.598Z,20.97
2018-02-09T12:21:03.314Z,19.77
2018-02-09T12:23:31.463Z,20.40
2018-02-09T12:25:59.026Z,22.93
2018-02-09T12:28:26.659Z,23.30
2018-02-09T12:30:55.566Z,21.37
2018-02-09T12:33:23.186Z,23.80
2018-02-09T12:35:50.886Z,21.57
2018-02-09T12:38:19.506Z,20.10
2018-02-09T12:40:47.964Z,19.33
2018-02-09T12:43:15.502Z,19.97
2018-02-09T12:45:43.093Z,21.83
2018-02-09T12:48:11.417Z,20.23
2018-02-09T12:50:39.229Z,18.57
2018-02-09T12:53:06.750Z,19.27
2018-02-09T12:55:34.435Z,19.40
2018-02-09T12:58:02.116Z,21.87
2018-02-09T13:00:29.686Z,20.23
2018-02-09T13:02:57.253Z,19.50
2018-02-09T13:05:25.453Z,19.57
2018-02-09T13:07:53.134Z,19.80
2018-02-09T13:10:20.730Z,18.37
2018-02-09T13:13:00.296Z,19.20
2018-02-09T13:15:27.927Z,21.10
2018-02-09T13:17:55.476Z,23.07
2018-02-09T13:20:23.163Z,21.27
2018-02-09T13:23:03.121Z,21.80
2018-02-09T13:25:30.728Z,21.27
2018-02-09T13:27:58.378Z,24.60
2018-02-09T13:30:26.047Z,17.50
2018-02-09T13:33:06.433Z,20.70
2018-02-09T13:35:34.059Z,20.00
2018-02-09T13:38:01.737Z,20.80
2018-02-09T13:40:29.404Z,17.60
2018-02-09T13:42:57.010Z,19.23
2018-02-09T13:45:24.633Z,18.90
2018-02-09T13:47:52.193Z,21.87
2018-02-09T13:50:19.802Z,19.60
2018-02-09T13:52:47.445Z,19.97
2018-02-09T13:55:15.193Z,18.07
2018-02-09T13:57:43.166Z,17.57
2018-02-09T14:00:10.834Z,19.97
2018-02-09T14:02:38.479Z,18.63
2018-02-09T14:05:06.610Z,18.07
2018-02-09T14:07:34.230Z,17.90
2018-02-09T14:10:01.934Z,16.60
2018-02-09T14:12:29.562Z,23.17
2018-02-09T14:14:57.232Z,17.23
2018-02-09T14:17:24.903Z,17.80
2018-02-09T14:19:52.534Z,16.40
2018-02-09T14:22:20.224Z,18.67
2018-02-09T14:24:47.906Z,17.60
2018-02-09T14:27:15.602Z,16.53
2018-02-09T14:29:43.607Z,15.27
2018-02-09T14:32:11.260Z,16.87
2018-02-09T14:34:38.924Z,14.97
2018-02-09T14:37:06.630Z,14.63
2018-02-09T14:39:34.324Z,16.80
2018-02-09T14:42:01.900Z,14.77
2018-02-09T14:44:29.614Z,16.57
2018-02-09T14:46:57.206Z,16.77
2018-02-09T14:49:25.734Z,16.30
2018-02-09T14:51:54.611Z,17.20
2018-02-09T14:54:22.678Z,16.03
2018-02-09T14:56:50.753Z,18.20
2018-02-09T14:59:18.601Z,17.10
2018-02-09T15:01:46.318Z,17.03
2018-02-09T15:04:14.346Z,20.13
2018-02-09T15:06:42.066Z,18.93
2018-02-09T15:09:10.082Z,18.60
2018-02-09T15:11:37.770Z,18.33
2018-02-09T15:14:05.393Z,19.70
2018-02-09T15:16:33.055Z,16.53
2018-02-09T15:19:00.735Z,17.57
2018-02-09T15:21:28.380Z,16.13
2018-02-09T15:23:56.028Z,16.70
2018-02-09T15:26:23.836Z,16.90
2018-02-09T15:28:51.507Z,16.87
2018-02-09T15:31:19.070Z,16.80
2018-02-09T15:33:47.171Z,16.10
2018-02-09T15:36:19.620Z,16.23
2018-02-09T15:38:47.419Z,15.80
2018-02-09T15:41:14.973Z,15.53
2018-02-09T15:43:42.595Z,14.50
2018-02-09T15:46:10.189Z,15.20
2018-02-09T15:48:43.710Z,13.60
2018-02-09T15:51:11.348Z,17.47
2018-02-09T15:53:39.007Z,17.50
2018-02-09T15:56:07.154Z,16.00
2018-02-09T15:58:34.741Z,16.10
2018-02-09T16:01:02.417Z,15.20
2018-02-09T16:03:30.046Z,14.33
2018-02-09T16:05:57.771Z,15.33
2018-02-09T16:08:25.378Z,13.70
2018-02-09T16:10:53.002Z,13.33
2018-02-09T16:13:20.759Z,14.63
2018-02-09T16:15:48.360Z,16.40
2018-02-09T16:18:16.025Z,14.30
2018-02-09T16:20:43.689Z,13.27
2018-02-09T16:23:13.637Z,16.60
2018-02-09T16:25:41.338Z,13.40
2018-02-09T16:28:09.342Z,13.27
2018-02-09T16:30:37.056Z,12.17
2018-02-09T16:33:04.652Z,13.63
2018-02-09T16:35:32.303Z,11.83
2018-02-09T16:37:59.975Z,13.27
2018-02-09T16:40:27.662Z,11.80
2018-02-09T16:42:55.731Z,14.53
2018-02-09T16:45:23.378Z,11.73
2018-02-09T16:47:51.010Z,13.03
2018-02-09T16:50:18.728Z,10.03
2018-02-09T16:52:46.340Z,9.97
2018-02-09T16:55:14.017Z,11.17
2018-02-09T16:57:41.722Z,10.67
2018-02-09T17:00:09.334Z,14.00
2018-02-09T17:02:36.990Z,11.33
2018-02-09T17:05:04.671Z,10.03
2018-02-09T17:07:32.327Z,9.90
2018-02-09T17:10:00.009Z,10.40
2018-02-09T17:12:27.624Z,9.83
2018-02-09T17:14:55.300Z,9.30
2018-02-09T17:17:22.983Z,10.17
2018-02-09T17:19:50.608Z,11.40
2018-02-09T17:22:18.534Z,10.63
2018-02-09T17:24:46.186Z,10.33
2018-02-09T17:27:13.817Z,8.60
2018-02-09T17:29:41.457Z,11.00
2018-02-09T17:32:09.138Z,11.03
2018-02-09T17:34:36.791Z,10.40
2018-02-09T17:37:04.484Z,9.67
2018-02-09T17:39:32.223Z,8.33
2018-02-09T17:41:59.816Z,8.50
2018-02-09T17:44:27.498Z,10.60
2018-02-09T17:46:55.127Z,8.77
2018-02-09T17:49:22.779Z,9.07
2018-02-09T17:51:50.441Z,10.10
2018-02-09T17:54:18.092Z,9.23
2018-02-09T17:56:45.795Z,7.70
2018-02-09T17:59:13.432Z,10.07
2018-02-09T18:01:41.464Z,8.50
2018-02-09T18:04:09.129Z,9.37
2018-02-09T18:06:36.769Z,9.03
2018-02-09T18:09:04.475Z,10.20
2018-02-09T18:11:32.087Z,9.60
2018-02-09T18:13:59.773Z,9.67
2018-02-09T18:16:27.410Z,11.70
2018-02-09T18:19:01.868Z,13.40
2018-02-09T18:21:36.208Z,9.90
2018-02-09T18:24:06.854Z,11.83
2018-02-09T18:26:39.614Z,12.20
2018-02-09T18:29:07.646Z,12.23
2018-02-09T18:31:35.315Z,10.23
2018-02-09T18:34:03.091Z,13.60
2018-02-09T18:36:31.790Z,13.50
2018-02-09T18:38:59.394Z,17.20
2018-02-09T18:41:26.986Z,13.03
2018-02-09T18:43:54.708Z,13.27
2018-02-09T18:46:22.854Z,17.30
2018-02-09T18:48:50.458Z,13.00
2018-02-09T18:51:18.015Z,16.40
2018-02-09T18:53:45.748Z,13.67
2018-02-09T18:56:13.414Z,13.70
2018-02-09T18:58:40.992Z,13.27
2018-02-09T19:01:08.669Z,15.63
2018-02-09T19:03:36.310Z,15.03
2018-02-09T19:06:07.727Z,13.20
2018-02-09T19:08:35.346Z,13.27
2018-02-09T19:11:03.031Z,16.07
2018-02-09T19:13:31.094Z,15.50
2018-02-09T19:15:58.768Z,17.40
2018-02-09T19:18:26.411Z,15.90
2018-02-09T19:20:54.039Z,14.53
2018-02-09T19:23:21.741Z,15.47
2018-02-09T19:25:49.330Z,15.03
2018-02-09T19:28:17.154Z,15.80
2018-02-09T19:30:44.742Z,14.50
2018-02-09T19:33:12.545Z,16.00
2018-02-09T19:35:40.176Z,16.47
2018-02-09T19:38:08.059Z,14.77
2018-02-09T19:40:35.608Z,14.33
2018-02-09T19:43:03.559Z,14.07
2018-02-09T19:45:31.106Z,17.07
2018-02-09T19:48:02.218Z,17.00
2018-02-09T19:50:29.862Z,15.57
2018-02-09T19:52:57.509Z,16.43
2018-02-09T19:55:25.218Z,15.00
2018-02-09T19:57:52.881Z,16.67
2018-02-09T20:00:20.496Z,16.03
2018-02-09T20:02:48.019Z,18.63
2018-02-09T20:05:15.658Z,17.53
2018-02-09T20:07:43.283Z,15.50
2018-02-09T20:10:10.946Z,14.20
2018-02-09T20:12:38.738Z,17.73
2018-02-09T20:15:06.410Z,14.47
2018-02-09T20:17:33.893Z,16.67
2018-02-09T20:20:01.500Z,16.73
2018-02-09T20:22:29.029Z,14.60
2018-02-09T20:24:56.720Z,15.00
2018-02-09T20:27:24.375Z,18.67
2018-02-09T20:29:52.093Z,15.10
2018-02-09T20:32:20.104Z,17.23
2018-02-09T20:34:47.718Z,14.77
2018-02-09T20:37:15.441Z,19.43
2018-02-09T20:39:43.102Z,16.93
2018-02-09T20:42:10.704Z,16.10
2018-02-09T20:44:38.318Z,16.50
2018-02-09T20:47:05.906Z,17.57
2018-02-09T20:49:33.510Z,17.40
2018-02-09T20:52:01.272Z,16.57
2018-02-09T20:54:28.846Z,16.43
2018-02-09T20:56:56.521Z,16.73
2018-02-09T20:59:24.210Z,16.17
2018-02-09T21:01:51.865Z,14.50
2018-02-09T21:04:19.503Z,14.37
2018-02-09T21:06:47.231Z,15.40
2018-02-09T21:09:14.792Z,15.50
2018-02-09T21:11:42.473Z,16.67
2018-02-09T21:14:10.180Z,14.97
2018-02-09T21:16:37.781Z,13.33
2018-02-09T21:19:05.444Z,14.00
2018-02-09T21:21:33.096Z,15.13
2018-02-09T21:24:00.767Z,16.83
2018-02-09T21:26:28.430Z,15.60
2018-02-09T21:29:01.838Z,14.57
2018-02-09T21:31:29.498Z,14.63
2018-02-09T21:33:57.168Z,16.50
2018-02-09T21:36:24.793Z,16.07
2018-02-09T21:38:52.471Z,14.60
2018-02-09T21:41:20.123Z,16.27
2018-02-09T21:43:47.782Z,17.17
2018-02-09T21:46:15.826Z,16.00
2018-02-09T21:48:44.148Z,14.67
2018-02-09T21:51:11.803Z,16.57
2018-02-09T21:53:40.111Z,17.70
2018-02-09T21:56:08.126Z,17.00
2018-02-09T21:58:37.866Z,21.47
2018-02-09T22:01:05.494Z,15.50
2018-02-09T22:03:33.499Z,13.93
2018-02-09T22:06:01.069Z,15.30
2018-02-09T22:08:28.681Z,13.83
2018-02-09T22:10:56.623Z,16.03
2018-02-09T22:13:24.323Z,15.70
2018-02-09T22:15:51.878Z,16.00
2018-02-09T22:18:19.522Z,14.83
2018-02-09T22:20:47.378Z,15.57
2018-02-09T22:23:14.882Z,16.80
2018-02-09T22:25:42.490Z,14.27
2018-02-09T22:28:13.833Z,15.00
2018-02-09T22:30:41.808Z,14.10
2018-02-09T22:33:09.362Z,14.70
2018-02-09T22:35:36.876Z,15.07
2018-02-09T22:38:04.758Z,13.97
2018-02-09T22:40:32.370Z,15.97
2018-02-09T22:42:59.870Z,18.30
2018-02-09T22:45:27.453Z,15.70
2018-02-09T22:47:55.146Z,13.10
2018-02-09T22:50:22.857Z,13.77
2018-02-09T22:52:50.460Z,13.10
2018-02-09T22:55:18.006Z,16.23
2018-02-09T22:57:45.605Z,12.77
2018-02-09T23:00:13.233Z,12.80
2018-02-09T23:02:40.748Z,12.87
2018-02-09T23:05:08.751Z,15.83
2018-02-09T23:07:36.316Z,15.00
2018-02-09T23:10:04.298Z,15.10
2018-02-09T23:12:31.994Z,15.47
2018-02-09T23:14:59.643Z,14.13
2018-02-09T23:17:27.317Z,14.60
2018-02-09T23:19:54.951Z,13.70
2018-02-09T23:22:22.659Z,13.47
2018-02-09T23:24:50.271Z,14.10
2018-02-09T23:27:17.915Z,13.57
2018-02-09T23:29:45.455Z,12.63
2018-02-09T23:32:13.086Z,12.20
2018-02-09T23:34:40.699Z,15.47
2018-02-09T23:37:08.236Z,14.43
2018-02-09T23:39:35.841Z,12.87
2018-02-09T23:42:03.503Z,12.63
2018-02-09T23:44:31.138Z,13.43
2018-02-09T23:46:58.798Z,16.10
2018-02-09T23:49:26.731Z,14.47
2018-02-09T23:51:54.339Z,13.63
2018-02-09T23:54:21.987Z,15.80
2018-02-09T23:56:49.638Z,14.03
2018-02-09T23:59:17.155Z,15.90
